METAR Data
IDs: Format: Raw Decoded Include TAF

Data at: 0005 UTC 14 May 2021

KHLB 132355Z AUTO 00000KT 10SM SCT085 16/01 A3029 RMK A01
KHLB 132335Z AUTO 04005KT 10SM OVC085 17/M01 A3030 RMK A01
KHLB 132315Z AUTO 00000KT 10SM SCT085 17/M01 A3029 RMK A01
KHLB 132255Z AUTO 08005KT 10SM FEW090 17/M01 A3030 RMK A01
KHLB 132235Z AUTO 10007KT 10SM BKN085 18/M01 A3030 RMK A01
KHLB 132215Z AUTO 11004KT 10SM SCT090 18/M01 A3030 RMK A01
KHLB 132155Z AUTO 06006KT 10SM BKN085 17/M01 A3031 RMK A01
KHLB 132135Z AUTO 05005KT 10SM SCT085 17/M01 A3031 RMK A01
KHLB 132115Z AUTO 12006KT 10SM SCT090 18/M01 A3031 RMK A01
KHLB 132055Z AUTO 06007KT 10SM BKN090 19/M01 A3031 RMK A01
KHLB 132035Z AUTO 00000G10KT 10SM FEW090 18/M03 A3032 RMK A01
KHLB 132015Z AUTO VRB04KT 10SM BKN090 17/M03 A3033 RMK A01
KHLB 131955Z AUTO VRB05KT 10SM BKN090 18/M02 A3033 RMK A01
KHLB 131935Z AUTO 12005G11KT 10SM SCT090 18/M01 A3034 RMK A01
KHLB 131915Z AUTO 00000G12KT 10SM CLR 18/M03 A3034 RMK A01
KHLB 131855Z AUTO 06008G14KT 030V090 10SM CLR 18/M02 A3035 RMK A01
KHLB 131835Z AUTO VRB06G16KT 10SM CLR 18/M01 A3036 RMK A01
KHLB 131815Z AUTO 06006G15KT 10SM CLR 18/M01 A3036 RMK A01
KHLB 131755Z AUTO 05004G14KT 10SM FEW085 18/M02 A3037 RMK A01
KHLB 131735Z AUTO VRB05G17KT 10SM CLR 18/M02 A3037 RMK A01
KHLB 131715Z AUTO 03012KT 10SM CLR 17/M01 A3038 RMK A01
KHLB 131655Z AUTO 05012KT 10SM CLR 17/M02 A3039 RMK A01
KHLB 131635Z AUTO 08007G12KT 10SM CLR 17/M02 A3039 RMK A01
KHLB 131615Z AUTO 07008G15KT 050V110 10SM CLR 17/M02 A3040 RMK A01
KHLB 131555Z AUTO 01008G13KT 320V050 10SM CLR 16/M03 A3040 RMK A01
KHLB 131535Z AUTO 04009KT 10SM CLR 16/M01 A3040 RMK A01
KHLB 131515Z AUTO VRB05G12KT 10SM CLR 15/M00 A3040 RMK A01
KHLB 131455Z AUTO VRB04KT 10SM CLR 15/M01 A3041 RMK A01
KHLB 131435Z AUTO 04007KT 10SM CLR 15/M01 A3041 RMK A01
KHLB 131415Z AUTO VRB05KT 10SM CLR 14/02 A3041 RMK A01
KHLB 131355Z AUTO 03006KT 10SM CLR 13/02 A3041 RMK A01
KHLB 131335Z AUTO 03004KT 10SM CLR 12/03 A3041 RMK A01
KHLB 131315Z AUTO 03005KT 10SM CLR 11/02 A3041 RMK A01
KHLB 131255Z AUTO 03005KT 10SM CLR 10/03 A3041 RMK A01
KHLB 131235Z AUTO VRB05KT 10SM CLR 09/02 A3041 RMK A01
KHLB 131215Z AUTO 00000KT 10SM CLR 08/03 A3041 RMK A01
KHLB 131155Z AUTO 00000KT 10SM CLR 07/04 A3040 RMK A01
KHLB 131135Z AUTO 00000KT 10SM CLR 04/04 A3040 RMK A01
KHLB 131115Z AUTO 00000KT 10SM CLR 03/03 A3039 RMK A01
KHLB 131055Z AUTO 00000KT 10SM CLR 02/02 A3039 RMK A01
KHLB 131035Z AUTO 00000KT 10SM CLR 02/02 A3038 RMK A01
KHLB 131015Z AUTO 00000KT 10SM CLR 02/02 A3037 RMK A01
KHLB 130955Z AUTO 00000KT 10SM CLR 02/02 A3037 RMK A01
KHLB 130935Z AUTO 00000KT 10SM CLR 02/02 A3037 RMK A01
KHLB 130915Z AUTO 00000KT 10SM CLR 02/02 A3037 RMK A01
KHLB 130855Z AUTO 00000KT 10SM CLR 03/03 A3037 RMK A01
KHLB 130835Z AUTO 00000KT 10SM CLR 03/03 A3037 RMK A01
KHLB 130815Z AUTO 00000KT 10SM CLR 03/03 A3036 RMK A01
KHLB 130755Z AUTO 00000KT 10SM CLR 03/03 A3036 RMK A01
KHLB 130735Z AUTO 00000KT 10SM CLR 03/03 A3037 RMK A01
KHLB 130715Z AUTO 00000KT 10SM CLR 03/03 A3037 RMK A01
KHLB 130655Z AUTO 00000KT 10SM CLR 04/04 A3037 RMK A01
KHLB 130635Z AUTO 00000KT 10SM CLR 04/04 A3037 RMK A01
KHLB 130615Z AUTO 00000KT 10SM CLR 04/04 A3037 RMK A01
KHLB 130555Z AUTO 00000KT 10SM CLR 05/05 A3037 RMK A01
KHLB 130535Z AUTO 00000KT 10SM CLR 05/05 A3037 RMK A01
KHLB 130515Z AUTO 00000KT 10SM CLR 05/05 A3038 RMK A01
KHLB 130455Z AUTO 00000KT 10SM CLR 06/04 A3037 RMK A01
KHLB 130435Z AUTO 00000KT 10SM CLR 06/04 A3037 RMK A01
KHLB 130415Z AUTO 00000KT 10SM CLR 06/04 A3037 RMK A01
KHLB 130355Z AUTO 00000KT 10SM CLR 07/05 A3037 RMK A01
KHLB 130335Z AUTO 00000KT 10SM CLR 07/04 A3037 RMK A01
KHLB 130315Z AUTO 00000KT 10SM CLR 08/03 A3037 RMK A01
KHLB 130255Z AUTO 00000KT 10SM CLR 08/02 A3037 RMK A01
KHLB 130235Z AUTO 00000KT 10SM CLR 09/01 A3037 RMK A01
KHLB 130215Z AUTO 00000KT 10SM CLR 09/02 A3036 RMK A01
KHLB 130155Z AUTO 00000KT 10SM CLR 09/02 A3035 RMK A01
KHLB 130135Z AUTO 00000KT 10SM CLR 11/01 A3035 RMK A01
KHLB 130115Z AUTO 00000KT 10SM CLR 11/01 A3034 RMK A01
KHLB 130055Z AUTO 03004KT 10SM CLR 13/01 A3034 RMK A01
KHLB 130035Z AUTO 03006KT 10SM CLR 13/01 A3033 RMK A01
KHLB 130015Z AUTO 03005KT 10SM CLR 14/01 A3032 RMK A01
KHLB 122355Z AUTO 05008KT 10SM FEW080 14/01 A3032 RMK A01
KHLB 122335Z AUTO 04005G12KT 10SM BKN075 14/01 A3032 RMK A01
KHLB 122315Z AUTO VRB04KT 10SM SCT070 15/M00 A3032 RMK A01
KHLB 122255Z AUTO VRB05G13KT 10SM SCT070 15/M01 A3032 RMK A01
KHLB 122235Z AUTO 02009KT 330V050 10SM SCT070 16/00 A3033 RMK A01
KHLB 122215Z AUTO 05006G14KT 10SM BKN070 16/01 A3033 RMK A01
KHLB 122155Z AUTO VRB06G12KT 10SM SCT070 15/01 A3033 RMK A01
KHLB 122135Z AUTO 05008G14KT 10SM BKN070 16/01 A3033 RMK A01
KHLB 122115Z AUTO 04007G13KT 10SM SCT070 15/01 A3033 RMK A01
KHLB 122055Z AUTO 01006G16KT 10SM CLR 15/00 A3033 RMK A01
KHLB 122035Z AUTO 07008G13KT 040V100 10SM FEW065 16/00 A3034 RMK A01
KHLB 122015Z AUTO VRB04G12KT 10SM SCT065 16/01 A3034 RMK A01
KHLB 121955Z AUTO VRB04G15KT 10SM SCT065 16/01 A3035 RMK A01
KHLB 121935Z AUTO 02008G15KT 10SM SCT065 16/01 A3036 RMK A01
KHLB 121915Z AUTO 02011KT 340V040 10SM BKN065 15/00 A3036 RMK A01
KHLB 121855Z AUTO VRB05G10KT 10SM SCT060 15/01 A3036 RMK A01
KHLB 121835Z AUTO 05011G16KT 10SM FEW060 15/01 A3036 RMK A01
KHLB 121815Z AUTO 05009G16KT 040V100 10SM CLR 16/02 A3037 RMK A01
KHLB 121755Z AUTO 10011G17KT 10SM CLR 15/01 A3037 RMK A01
KHLB 121735Z AUTO 06010G15KT 020V090 10SM CLR 15/01 A3037 RMK A01
KHLB 121715Z AUTO 04012KT 10SM CLR 14/01 A3038 RMK A01
KHLB 121655Z AUTO 07008KT 10SM CLR 14/02 A3039 RMK A01
KHLB 121635Z AUTO 05010KT 10SM CLR 14/02 A3039 RMK A01
KHLB 121615Z AUTO 05010KT 10SM CLR 14/01 A3039 RMK A01
KHLB 121555Z AUTO 04008G18KT 020V080 10SM CLR 13/01 A3040 RMK A01
KHLB 121535Z AUTO 07009G17KT 040V100 10SM CLR 13/00 A3040 RMK A01
KHLB 121515Z AUTO 07007G15KT 10SM CLR 13/00 A3039 RMK A01
KHLB 121455Z AUTO 09012KT 10SM CLR 13/01 A3040 RMK A01
KHLB 121435Z AUTO 03012KT 10SM CLR 12/00 A3040 RMK A01
KHLB 121415Z AUTO 08007G13KT 10SM CLR 12/01 A3040 RMK A01
KHLB 121355Z AUTO 05006G13KT 10SM CLR 11/01 A3041 RMK A01 P0011
KHLB 121335Z AUTO VRB06KT CLR 10/02 A3041 RMK A01
KHLB 121315Z AUTO 04006KT 10SM CLR 09/02 A3041 RMK A01
KHLB 121255Z AUTO 04006KT 10SM CLR 08/02 A3040 RMK A01
KHLB 121235Z AUTO 02005KT 10SM CLR 07/02 A3040 RMK A01
KHLB 121215Z AUTO 03007KT 360V060 10SM CLR 06/02 A3040 RMK A01